Time;durP1;ratioP1;P1;durP2;ratioP2;P2;SDS_P1;SDS_P2;PMS_P1;PMS_P2;Temp;Humidity;BMP_temperature;BMP_pressure;BME280_temperature;BME280_humidity;BME280_pressure;Samples;Min_cycle;Max_cycle;Signal;HPM_P1;HPM_P2
2022/03/25 00:01:28;;;;;;;104.82;47.08;;;;;;;;;;4995024;28;20022;-55
2022/03/25 00:03:54;;;;;;;101.43;47.58;;;;;;;;;;4995247;28;20034;-55
2022/03/25 00:06:22;;;;;;;97.15;46.78;;;;;;;;;;4994912;28;20076;-56
2022/03/25 00:08:48;;;;;;;86.78;39.72;;;;;;;;;;4994515;28;20084;-54
2022/03/25 00:11:14;;;;;;;75.88;35.15;;;;;;;;;;4995363;28;20490;-54
2022/03/25 00:13:41;;;;;;;72.97;32.92;;;;;;;;;;4995664;28;20352;-57
2022/03/25 00:16:07;;;;;;;66.07;32.35;;;;;;;;;;4994744;28;20363;-57
2022/03/25 00:18:34;;;;;;;63.60;30.85;;;;;;;;;;4994671;28;20050;-53
2022/03/25 00:21:01;;;;;;;61.05;28.13;;;;;;;;;;4994927;28;20040;-55
2022/03/25 00:23:27;;;;;;;60.78;27.73;;;;;;;;;;4994636;28;20072;-53
2022/03/25 00:25:54;;;;;;;59.42;24.52;;;;;;;;;;4994900;28;20030;-54
2022/03/25 00:28:23;;;;;;;49.13;24.90;;;;;;;;;;4994857;28;20040;-55
2022/03/25 00:30:50;;;;;;;79.07;38.22;;;;;;;;;;4994487;28;20019;-55
2022/03/25 00:33:16;;;;;;;80.43;38.72;;;;;;;;;;4994365;28;20504;-55
2022/03/25 00:35:44;;;;;;;65.32;31.73;;;;;;;;;;4994707;28;20023;-55
2022/03/25 00:38:11;;;;;;;67.97;30.90;;;;;;;;;;4994286;28;20045;-54
2022/03/25 00:40:37;;;;;;;59.72;30.90;;;;;;;;;;4994332;28;20035;-55
2022/03/25 00:43:03;;;;;;;64.15;32.88;;;;;;;;;;4994671;28;20471;-57
2022/03/25 00:45:31;;;;;;;69.03;35.38;;;;;;;;;;4994519;28;20038;-53
2022/03/25 00:47:58;;;;;;;95.35;47.03;;;;;;;;;;4993265;28;20019;-52
2022/03/25 00:50:25;;;;;;;103.80;51.70;;;;;;;;;;4994116;28;20022;-52
2022/03/25 00:52:51;;;;;;;116.18;56.33;;;;;;;;;;4994481;28;20042;-54
2022/03/25 00:55:18;;;;;;;100.10;53.72;;;;;;;;;;4994414;28;20109;-53
2022/03/25 00:57:44;;;;;;;94.30;47.22;;;;;;;;;;4994367;28;20129;-51
2022/03/25 01:00:10;;;;;;;98.53;46.60;;;;;;;;;;4994393;28;20034;-54
2022/03/25 01:02:38;;;;;;;101.60;48.10;;;;;;;;;;4994580;28;20460;-52
2022/03/25 01:05:05;;;;;;;95.80;46.83;;;;;;;;;;4993701;28;20050;-53
2022/03/25 01:07:31;;;;;;;92.75;47.03;;;;;;;;;;4994551;28;20038;-55
2022/03/25 01:09:57;;;;;;;85.05;42.92;;;;;;;;;;4994758;28;20464;-49
2022/03/25 01:12:24;;;;;;;93.28;47.08;;;;;;;;;;4993617;28;20029;-54
2022/03/25 01:14:50;;;;;;;94.95;46.92;;;;;;;;;;4994063;28;20023;-55
2022/03/25 01:17:17;;;;;;;111.70;53.50;;;;;;;;;;4994542;28;20026;-51
2022/03/25 01:19:44;;;;;;;114.50;55.63;;;;;;;;;;4993559;28;20383;-51
2022/03/25 01:22:10;;;;;;;114.47;54.97;;;;;;;;;;4994108;28;20102;-51
2022/03/25 01:24:36;;;;;;;111.10;53.20;;;;;;;;;;4993850;28;20030;-53
2022/03/25 01:27:04;;;;;;;102.40;53.00;;;;;;;;;;4993778;28;20084;-55
2022/03/25 01:29:30;;;;;;;102.43;52.20;;;;;;;;;;4994389;28;20030;-56
2022/03/25 01:31:56;;;;;;;86.00;41.72;;;;;;;;;;4994092;28;20029;-53
2022/03/25 01:34:23;;;;;;;84.85;40.72;;;;;;;;;;4993364;28;20480;-54
2022/03/25 01:36:49;;;;;;;103.93;47.42;;;;;;;;;;4993898;28;20018;-55
2022/03/25 01:39:15;;;;;;;88.53;45.15;;;;;;;;;;4993452;28;20027;-53
2022/03/25 01:41:42;;;;;;;114.57;52.78;;;;;;;;;;4993923;28;20022;-54
2022/03/25 01:44:09;;;;;;;114.97;55.20;;;;;;;;;;4994022;28;20084;-56
2022/03/25 01:46:36;;;;;;;112.75;54.45;;;;;;;;;;4993700;28;20081;-55
2022/03/25 01:49:02;;;;;;;104.88;50.90;;;;;;;;;;4993817;28;20022;-54
2022/03/25 01:51:33;;;;;;;97.13;46.25;;;;;;;;;;4993607;28;20519;-53
2022/03/25 01:54:06;;;;;;;81.30;41.38;;;;;;;;;;4993570;28;20040;-53
2022/03/25 01:56:34;;;;;;;64.13;32.75;;;;;;;;;;4995897;28;20049;-56
2022/03/25 01:59:00;;;;;;;68.00;32.65;;;;;;;;;;4997712;28;20026;-52
2022/03/25 02:01:27;;;;;;;72.47;33.83;;;;;;;;;;4997337;28;20023;-50
2022/03/25 02:03:53;;;;;;;66.38;30.98;;;;;;;;;;4997440;28;20026;-51
2022/03/25 02:06:20;;;;;;;60.63;31.20;;;;;;;;;;4997441;28;20023;-53
2022/03/25 02:08:47;;;;;;;56.67;29.15;;;;;;;;;;4997109;28;20026;-53
2022/03/25 02:11:13;;;;;;;54.97;27.42;;;;;;;;;;4997096;28;20472;-53
2022/03/25 02:13:39;;;;;;;57.78;26.65;;;;;;;;;;4997334;28;20040;-54
2022/03/25 02:16:05;;;;;;;51.13;25.90;;;;;;;;;;4996990;28;20076;-55
2022/03/25 02:18:32;;;;;;;49.90;24.60;;;;;;;;;;4997259;28;20101;-51
2022/03/25 02:20:59;;;;;;;42.20;20.27;;;;;;;;;;4996821;28;20488;-54
2022/03/25 02:23:25;;;;;;;48.13;22.05;;;;;;;;;;4996963;28;20567;-49
2022/03/25 02:25:52;;;;;;;52.42;26.33;;;;;;;;;;4996780;28;20082;-50
2022/03/25 02:28:18;;;;;;;71.95;31.27;;;;;;;;;;4996711;28;20114;-54
2022/03/25 02:30:44;;;;;;;76.20;35.28;;;;;;;;;;4996756;28;20018;-54
2022/03/25 02:33:12;;;;;;;70.00;31.88;;;;;;;;;;4996565;28;20049;-54
2022/03/25 02:35:42;;;;;;;60.72;30.80;;;;;;;;;;4996251;28;20077;-55
2022/03/25 02:38:09;;;;;;;59.97;30.33;;;;;;;;;;4996888;28;20018;-53
2022/03/25 02:40:35;;;;;;;58.50;28.73;;;;;;;;;;4996412;28;20022;-55
2022/03/25 02:43:02;;;;;;;61.13;28.05;;;;;;;;;;4996432;28;20030;-53
2022/03/25 02:45:28;;;;;;;56.72;27.15;;;;;;;;;;4996739;28;20023;-55
2022/03/25 02:47:54;;;;;;;52.10;26.63;;;;;;;;;;4996655;28;20069;-54
2022/03/25 02:50:21;;;;;;;58.17;25.08;;;;;;;;;;4996007;28;20029;-55
2022/03/25 02:52:47;;;;;;;50.00;23.80;;;;;;;;;;4996540;28;20035;-53
2022/03/25 02:55:13;;;;;;;38.53;20.05;;;;;;;;;;4996564;28;20014;-54
2022/03/25 02:57:40;;;;;;;24.02;12.63;;;;;;;;;;4995898;28;20055;-51
2022/03/25 03:00:08;;;;;;;27.75;12.27;;;;;;;;;;4996817;28;20378;-55
2022/03/25 03:02:35;;;;;;;27.00;11.70;;;;;;;;;;4996356;28;20023;-48
2022/03/25 03:05:01;;;;;;;23.77;12.45;;;;;;;;;;4996159;28;20026;-51
2022/03/25 03:07:28;;;;;;;29.63;13.95;;;;;;;;;;4995089;28;20029;-52
2022/03/25 03:09:54;;;;;;;26.00;13.30;;;;;;;;;;4995858;28;20029;-53
2022/03/25 03:12:21;;;;;;;26.88;13.32;;;;;;;;;;4995823;28;20050;-55
2022/03/25 03:14:47;;;;;;;29.90;13.60;;;;;;;;;;4996191;28;20026;-53
2022/03/25 03:17:13;;;;;;;28.33;14.48;;;;;;;;;;4995863;28;20487;-57
2022/03/25 03:19:40;;;;;;;29.67;16.70;;;;;;;;;;4996109;28;20097;-50
2022/03/25 03:22:06;;;;;;;35.65;18.98;;;;;;;;;;4995788;28;20023;-55
2022/03/25 03:24:32;;;;;;;41.92;20.13;;;;;;;;;;4995952;28;20061;-55
2022/03/25 03:26:58;;;;;;;42.42;19.55;;;;;;;;;;4994748;28;20030;-55
2022/03/25 03:29:25;;;;;;;47.33;23.67;;;;;;;;;;4995999;28;20456;-55
2022/03/25 03:31:51;;;;;;;53.88;24.13;;;;;;;;;;4995747;28;20097;-52
2022/03/25 03:34:17;;;;;;;51.17;24.15;;;;;;;;;;4995997;28;20040;-53
2022/03/25 03:36:44;;;;;;;34.15;17.88;;;;;;;;;;4995472;28;20022;-52
2022/03/25 03:39:11;;;;;;;35.80;17.95;;;;;;;;;;4995360;28;20026;-54
2022/03/25 03:41:38;;;;;;;28.42;15.68;;;;;;;;;;4995471;28;20112;-55
2022/03/25 03:44:05;;;;;;;29.88;17.23;;;;;;;;;;4996176;28;20026;-52
2022/03/25 03:46:31;;;;;;;67.88;28.65;;;;;;;;;;4995097;28;20531;-50
2022/03/25 03:48:57;;;;;;;51.03;26.15;;;;;;;;;;4995470;28;20031;-49
2022/03/25 03:51:24;;;;;;;58.67;27.95;;;;;;;;;;4995129;28;20026;-49
2022/03/25 03:53:50;;;;;;;55.45;27.00;;;;;;;;;;4995047;28;20038;-50
2022/03/25 03:56:16;;;;;;;70.95;33.97;;;;;;;;;;4995189;28;20026;-53
2022/03/25 03:58:42;;;;;;;67.97;33.50;;;;;;;;;;4995587;28;20044;-52
2022/03/25 04:01:09;;;;;;;58.83;28.83;;;;;;;;;;4994646;28;20361;-50
2022/03/25 04:03:35;;;;;;;58.28;25.95;;;;;;;;;;4995224;28;20022;-57
2022/03/25 04:06:01;;;;;;;54.03;29.40;;;;;;;;;;4994625;28;20483;-53
2022/03/25 04:08:28;;;;;;;45.28;23.15;;;;;;;;;;4995609;28;20367;-54
2022/03/25 04:10:54;;;;;;;38.88;21.48;;;;;;;;;;4995115;28;20036;-54
2022/03/25 04:13:20;;;;;;;44.08;20.33;;;;;;;;;;4994630;28;20077;-52
2022/03/25 04:15:46;;;;;;;43.78;20.42;;;;;;;;;;4994673;28;20413;-52
2022/03/25 04:18:12;;;;;;;45.92;20.27;;;;;;;;;;4994309;28;20491;-55
2022/03/25 04:20:38;;;;;;;36.38;19.27;;;;;;;;;;4994529;28;20018;-56
2022/03/25 04:23:05;;;;;;;35.30;17.92;;;;;;;;;;4994390;28;20466;-52
2022/03/25 04:25:31;;;;;;;39.55;17.92;;;;;;;;;;4995073;28;20034;-51
2022/03/25 04:27:58;;;;;;;28.67;15.02;;;;;;;;;;4994325;28;20027;-56
2022/03/25 04:30:27;;;;;;;28.15;14.10;;;;;;;;;;4994516;28;20109;-52
2022/03/25 04:32:53;;;;;;;30.98;14.90;;;;;;;;;;4994786;28;20042;-49
2022/03/25 04:35:21;;;;;;;24.48;11.82;;;;;;;;;;4993341;28;20061;-50
2022/03/25 04:37:47;;;;;;;26.17;12.55;;;;;;;;;;4994468;28;20026;-54
2022/03/25 04:40:17;;;;;;;22.77;11.30;;;;;;;;;;4994255;28;20478;-51
2022/03/25 04:42:43;;;;;;;19.75;10.55;;;;;;;;;;4994460;28;20030;-51
2022/03/25 04:45:10;;;;;;;20.80;10.65;;;;;;;;;;4994597;28;20472;-52
2022/03/25 04:47:36;;;;;;;21.75;11.02;;;;;;;;;;4994306;28;20054;-51
2022/03/25 04:50:03;;;;;;;18.38;10.15;;;;;;;;;;4993672;28;20035;-50
2022/03/25 04:52:29;;;;;;;19.38;9.98;;;;;;;;;;4994432;28;20485;-49
2022/03/25 04:54:55;;;;;;;20.10;10.55;;;;;;;;;;4993952;28;20463;-52
2022/03/25 04:57:22;;;;;;;20.08;10.73;;;;;;;;;;4993935;28;20054;-53
2022/03/25 04:59:48;;;;;;;20.40;10.18;;;;;;;;;;4993120;28;20023;-51
2022/03/25 05:02:14;;;;;;;21.27;10.90;;;;;;;;;;4993713;28;20036;-51
2022/03/25 05:04:50;;;;;;;21.70;11.07;;;;;;;;;;4994061;28;20418;-57
2022/03/25 05:07:43;;;;;;;22.38;11.10;;;;;;;;;;4992767;28;20023;-58
2022/03/25 05:10:13;;;;;;;22.60;11.27;;;;;;;;;;4992199;28;20030;-55
2022/03/25 05:12:40;;;;;;;30.88;12.07;;;;;;;;;;4992075;28;20026;-55
2022/03/25 05:15:07;;;;;;;23.73;12.13;;;;;;;;;;4993788;28;20022;-55
2022/03/25 05:17:33;;;;;;;26.13;12.10;;;;;;;;;;4993249;28;20081;-54
2022/03/25 05:19:59;;;;;;;25.15;12.55;;;;;;;;;;4993741;28;20053;-53
2022/03/25 05:22:26;;;;;;;25.90;12.45;;;;;;;;;;4993675;28;20447;-56
2022/03/25 05:24:52;;;;;;;21.92;12.98;;;;;;;;;;4993675;28;20475;-53
2022/03/25 05:27:18;;;;;;;24.48;12.73;;;;;;;;;;4994131;28;20034;-51
2022/03/25 05:29:44;;;;;;;23.23;11.93;;;;;;;;;;4994201;28;20546;-52
2022/03/25 05:32:11;;;;;;;23.98;12.25;;;;;;;;;;4997765;28;20034;-50
2022/03/25 05:34:37;;;;;;;27.05;13.63;;;;;;;;;;4997629;28;20107;-53
2022/03/25 05:37:03;;;;;;;41.78;17.73;;;;;;;;;;4998425;28;20037;-52
2022/03/25 05:39:29;;;;;;;38.35;17.50;;;;;;;;;;4997397;28;20035;-54
2022/03/25 05:41:56;;;;;;;31.00;15.63;;;;;;;;;;4997573;28;20065;-52
2022/03/25 05:44:22;;;;;;;37.10;17.85;;;;;;;;;;4997744;28;20479;-52
2022/03/25 05:46:48;;;;;;;28.88;14.57;;;;;;;;;;4997289;28;20471;-55
2022/03/25 05:49:14;;;;;;;28.75;14.35;;;;;;;;;;4997041;28;20018;-56
2022/03/25 05:51:41;;;;;;;31.05;15.52;;;;;;;;;;4997115;28;20394;-51
2022/03/25 05:54:07;;;;;;;33.03;16.58;;;;;;;;;;4997403;28;20128;-51
2022/03/25 05:56:33;;;;;;;32.60;14.75;;;;;;;;;;4997372;28;20089;-51
2022/03/25 05:58:59;;;;;;;40.58;17.73;;;;;;;;;;4997048;28;20027;-58
2022/03/25 06:01:25;;;;;;;37.05;16.80;;;;;;;;;;4996828;28;20018;-52
2022/03/25 06:03:52;;;;;;;33.20;15.13;;;;;;;;;;4997380;28;20419;-56
2022/03/25 06:06:18;;;;;;;28.42;14.27;;;;;;;;;;4996956;28;20041;-54
2022/03/25 06:08:45;;;;;;;32.00;15.20;;;;;;;;;;4997018;28;20019;-55
2022/03/25 06:11:11;;;;;;;34.58;16.25;;;;;;;;;;4995676;28;20041;-52
2022/03/25 06:13:37;;;;;;;30.85;16.08;;;;;;;;;;4996089;28;20118;-50
2022/03/25 06:16:03;;;;;;;35.67;16.20;;;;;;;;;;4996286;28;20022;-51
2022/03/25 06:18:29;;;;;;;35.15;15.73;;;;;;;;;;4996717;28;20141;-55
2022/03/25 06:20:55;;;;;;;36.92;16.67;;;;;;;;;;4996753;28;20030;-56
2022/03/25 06:23:22;;;;;;;31.05;16.30;;;;;;;;;;4996865;28;20395;-52
2022/03/25 06:25:48;;;;;;;33.42;16.58;;;;;;;;;;4997107;28;20100;-49
2022/03/25 06:28:14;;;;;;;36.38;14.80;;;;;;;;;;4997081;28;20030;-52
2022/03/25 06:30:40;;;;;;;30.55;14.43;;;;;;;;;;4996746;28;20023;-50
2022/03/25 06:33:09;;;;;;;29.98;14.98;;;;;;;;;;4996409;28;20030;-54
2022/03/25 06:35:36;;;;;;;26.27;13.98;;;;;;;;;;4996913;28;20078;-53
2022/03/25 06:38:04;;;;;;;27.65;13.57;;;;;;;;;;4996930;28;20345;-52
2022/03/25 06:40:30;;;;;;;27.42;13.48;;;;;;;;;;4996247;28;20093;-55
2022/03/25 06:42:57;;;;;;;32.15;14.27;;;;;;;;;;4997132;28;20023;-54
2022/03/25 06:45:24;;;;;;;28.02;13.52;;;;;;;;;;4996430;28;20073;-55
2022/03/25 06:47:50;;;;;;;26.13;13.55;;;;;;;;;;4995735;28;20027;-55
2022/03/25 06:50:17;;;;;;;29.10;13.20;;;;;;;;;;4993931;28;20026;-55
2022/03/25 06:52:44;;;;;;;27.75;13.32;;;;;;;;;;4995711;28;20106;-50
2022/03/25 06:55:11;;;;;;;27.67;12.95;;;;;;;;;;4995404;28;20487;-54
2022/03/25 06:57:37;;;;;;;25.15;12.18;;;;;;;;;;4995921;28;20053;-54
2022/03/25 07:00:05;;;;;;;26.83;13.02;;;;;;;;;;4995859;28;20018;-54
2022/03/25 07:02:31;;;;;;;24.52;12.98;;;;;;;;;;4995720;28;20109;-55
2022/03/25 07:04:57;;;;;;;24.65;12.02;;;;;;;;;;4995917;28;20472;-52
2022/03/25 07:07:26;;;;;;;27.05;13.27;;;;;;;;;;4995445;28;20027;-56
2022/03/25 07:09:55;;;;;;;27.63;14.15;;;;;;;;;;4995210;28;20084;-55
2022/03/25 07:12:21;;;;;;;30.60;13.90;;;;;;;;;;4995954;28;20027;-52
2022/03/25 07:14:48;;;;;;;24.85;12.65;;;;;;;;;;4996261;28;20088;-54
2022/03/25 07:17:14;;;;;;;34.30;12.30;;;;;;;;;;4994582;28;20030;-55
2022/03/25 07:19:40;;;;;;;24.65;12.35;;;;;;;;;;4996203;28;20030;-53
2022/03/25 07:22:06;;;;;;;22.45;11.63;;;;;;;;;;4995754;28;20014;-54
2022/03/25 07:24:32;;;;;;;24.50;12.60;;;;;;;;;;4996142;28;20035;-51
2022/03/25 07:26:58;;;;;;;20.38;10.40;;;;;;;;;;4995799;28;20049;-53
2022/03/25 07:29:25;;;;;;;20.80;10.10;;;;;;;;;;4995850;28;20022;-54
2022/03/25 07:31:51;;;;;;;20.30;10.20;;;;;;;;;;4995715;28;20035;-52
2022/03/25 07:34:17;;;;;;;14.75;8.70;;;;;;;;;;4996128;28;20035;-52
2022/03/25 07:36:43;;;;;;;14.32;8.20;;;;;;;;;;4995305;28;20057;-51
2022/03/25 07:39:09;;;;;;;21.95;10.25;;;;;;;;;;4996005;28;20027;-57
2022/03/25 07:41:35;;;;;;;17.88;8.15;;;;;;;;;;4995766;28;20032;-50
2022/03/25 07:44:01;;;;;;;20.35;8.10;;;;;;;;;;4995552;28;20365;-54
2022/03/25 07:46:28;;;;;;;19.90;7.22;;;;;;;;;;4995223;28;20022;-53
2022/03/25 07:48:55;;;;;;;16.52;6.50;;;;;;;;;;4995540;28;20031;-53
2022/03/25 07:51:21;;;;;;;11.75;5.70;;;;;;;;;;4995287;28;20033;-53
2022/03/25 07:53:47;;;;;;;20.75;6.35;;;;;;;;;;4995309;28;20035;-52
2022/03/25 07:56:13;;;;;;;15.35;7.28;;;;;;;;;;4994965;28;20034;-50
2022/03/25 07:58:40;;;;;;;22.92;7.78;;;;;;;;;;4995183;28;20029;-54
2022/03/25 08:01:06;;;;;;;14.82;7.03;;;;;;;;;;4995959;28;20368;-55
2022/03/25 08:03:32;;;;;;;21.30;7.15;;;;;;;;;;4995036;28;20027;-52
2022/03/25 08:05:58;;;;;;;20.20;7.95;;;;;;;;;;4995019;28;20097;-53
2022/03/25 08:08:25;;;;;;;15.63;6.93;;;;;;;;;;4995200;28;20015;-53
2022/03/25 08:10:55;;;;;;;19.83;6.38;;;;;;;;;;4994795;28;20027;-53
2022/03/25 08:13:22;;;;;;;16.60;7.65;;;;;;;;;;4995080;28;20031;-51
2022/03/25 08:15:48;;;;;;;12.10;6.97;;;;;;;;;;4995074;28;20423;-56
2022/03/25 08:18:16;;;;;;;16.38;7.20;;;;;;;;;;4995021;28;20038;-51
2022/03/25 08:20:46;;;;;;;18.08;8.40;;;;;;;;;;4994690;28;20026;-50
2022/03/25 08:23:13;;;;;;;18.55;8.57;;;;;;;;;;4995295;28;20054;-50
2022/03/25 08:28:25;;;;;;;17.55;7.00;;;;;;;;;;4994677;28;20522;-54
2022/03/25 08:30:51;;;;;;;13.13;6.00;;;;;;;;;;4995062;28;20030;-52
2022/03/25 08:33:18;;;;;;;15.68;7.22;;;;;;;;;;4994579;28;20390;-51
2022/03/25 08:35:44;;;;;;;14.52;7.30;;;;;;;;;;4994401;28;20015;-51
2022/03/25 08:38:12;;;;;;;13.20;6.72;;;;;;;;;;4994746;28;20034;-52
2022/03/25 08:40:39;;;;;;;19.67;6.20;;;;;;;;;;4994047;28;20078;-57
2022/03/25 08:43:05;;;;;;;16.48;7.40;;;;;;;;;;4994367;28;20026;-53
2022/03/25 08:45:32;;;;;;;13.50;7.03;;;;;;;;;;4994335;28;20030;-55
2022/03/25 08:47:59;;;;;;;15.23;6.95;;;;;;;;;;4994306;28;20026;-54
2022/03/25 08:50:25;;;;;;;13.85;6.10;;;;;;;;;;4993863;28;20099;-55
2022/03/25 08:52:52;;;;;;;15.18;6.50;;;;;;;;;;4994343;28;20498;-52
2022/03/25 08:55:20;;;;;;;15.27;6.25;;;;;;;;;;4992705;28;20034;-52
2022/03/25 08:57:47;;;;;;;15.70;5.88;;;;;;;;;;4993786;28;20403;-57
2022/03/25 09:00:14;;;;;;;14.27;6.00;;;;;;;;;;4993796;28;20026;-54
2022/03/25 09:02:42;;;;;;;20.25;6.15;;;;;;;;;;4993944;28;20022;-54
2022/03/25 09:05:14;;;;;;;11.70;6.32;;;;;;;;;;4992566;28;20064;-61
2022/03/25 09:07:47;;;;;;;13.68;6.28;;;;;;;;;;4990577;28;20029;-55
2022/03/25 09:10:17;;;;;;;15.30;5.95;;;;;;;;;;4992820;28;20034;-62
2022/03/25 09:12:50;;;;;;;13.75;6.10;;;;;;;;;;4994390;28;20061;-57
2022/03/25 09:15:23;;;;;;;15.40;6.50;;;;;;;;;;4993349;28;20022;-55
2022/03/25 09:17:58;;;;;;;21.45;7.28;;;;;;;;;;4992940;28;20391;-55
2022/03/25 09:20:26;;;;;;;13.43;5.90;;;;;;;;;;4994455;28;20026;-57
2022/03/25 09:22:58;;;;;;;11.52;5.68;;;;;;;;;;4993592;28;20025;-60
2022/03/25 09:25:30;;;;;;;13.05;5.00;;;;;;;;;;4994488;28;20502;-61
2022/03/25 09:27:57;;;;;;;11.95;5.55;;;;;;;;;;4993723;28;20022;-50
2022/03/25 09:30:23;;;;;;;17.08;5.80;;;;;;;;;;4993975;28;20018;-53
2022/03/25 09:32:50;;;;;;;14.98;5.95;;;;;;;;;;4991864;28;20031;-52
2022/03/25 09:35:16;;;;;;;17.38;7.03;;;;;;;;;;4993841;28;20538;-52
2022/03/25 09:37:42;;;;;;;15.20;6.82;;;;;;;;;;4993927;28;20057;-49
2022/03/25 09:40:14;;;;;;;11.85;5.70;;;;;;;;;;4993991;28;20033;-54
2022/03/25 09:42:40;;;;;;;10.48;4.70;;;;;;;;;;4992489;28;20023;-53
2022/03/25 09:45:07;;;;;;;9.90;4.95;;;;;;;;;;4993370;28;20480;-51
2022/03/25 09:47:34;;;;;;;11.75;4.40;;;;;;;;;;4993854;28;20037;-53
2022/03/25 09:50:00;;;;;;;7.35;3.53;;;;;;;;;;4994162;28;20026;-52
2022/03/25 09:52:28;;;;;;;12.32;4.20;;;;;;;;;;4993996;28;20088;-53
2022/03/25 09:54:55;;;;;;;13.50;4.38;;;;;;;;;;4994138;28;20034;-51
2022/03/25 09:57:21;;;;;;;14.35;3.70;;;;;;;;;;4993458;28;20055;-53
2022/03/25 09:59:47;;;;;;;8.98;3.97;;;;;;;;;;4993501;28;20094;-53
2022/03/25 10:02:13;;;;;;;11.63;4.03;;;;;;;;;;4994156;28;20022;-51
2022/03/25 10:04:49;;;;;;;11.73;4.38;;;;;;;;;;4992439;28;20037;-52
2022/03/25 10:07:31;;;;;;;10.55;4.35;;;;;;;;;;4994582;28;20106;-54
2022/03/25 10:10:11;;;;;;;11.60;5.20;;;;;;;;;;4993702;28;20054;-50
2022/03/25 10:12:39;;;;;;;9.27;4.33;;;;;;;;;;4993486;28;20057;-52
2022/03/25 10:15:21;;;;;;;16.65;4.97;;;;;;;;;;4993746;28;20030;-53
2022/03/25 10:17:52;;;;;;;7.53;3.80;;;;;;;;;;4995641;28;20023;-49
2022/03/25 10:20:19;;;;;;;8.43;4.78;;;;;;;;;;4997047;28;20022;-54
2022/03/25 10:23:06;;;;;;;9.50;3.83;;;;;;;;;;4996782;28;20031;-52
2022/03/25 10:25:37;;;;;;;10.43;4.20;;;;;;;;;;4996577;28;20050;-53
2022/03/25 10:28:04;;;;;;;9.13;4.88;;;;;;;;;;4997474;28;20344;-56
2022/03/25 10:30:37;;;;;;;11.30;5.25;;;;;;;;;;4997043;28;20115;-52
2022/03/25 10:33:13;;;;;;;8.32;4.82;;;;;;;;;;4995305;28;20104;-53
2022/03/25 10:35:57;;;;;;;11.98;4.85;;;;;;;;;;4996843;28;20023;-53
2022/03/25 10:38:24;;;;;;;9.27;4.80;;;;;;;;;;4994794;28;20467;-49
2022/03/25 10:40:51;;;;;;;9.13;4.00;;;;;;;;;;4996846;28;20023;-53
2022/03/25 10:43:17;;;;;;;9.27;4.97;;;;;;;;;;4996772;28;20041;-49
2022/03/25 10:45:43;;;;;;;8.60;5.03;;;;;;;;;;4995737;28;20054;-48
2022/03/25 10:48:17;;;;;;;13.23;5.82;;;;;;;;;;4995476;28;20117;-49
2022/03/25 10:51:03;;;;;;;11.05;5.03;;;;;;;;;;4996349;28;20072;-52
2022/03/25 10:53:29;;;;;;;19.73;5.97;;;;;;;;;;4996215;28;20121;-51
2022/03/25 10:55:56;;;;;;;14.32;4.65;;;;;;;;;;4996828;28;20022;-55
2022/03/25 10:58:23;;;;;;;10.57;5.07;;;;;;;;;;4996965;28;20062;-51
2022/03/25 11:00:49;;;;;;;10.88;5.97;;;;;;;;;;4996188;28;20109;-54
2022/03/25 11:03:16;;;;;;;13.45;5.88;;;;;;;;;;4996485;28;20026;-49
2022/03/25 11:05:43;;;;;;;11.18;5.75;;;;;;;;;;4995035;28;20454;-55
2022/03/25 11:08:09;;;;;;;12.35;5.85;;;;;;;;;;4995972;28;20105;-53
2022/03/25 11:10:36;;;;;;;12.73;4.88;;;;;;;;;;4996032;28;20110;-51
2022/03/25 11:13:03;;;;;;;10.27;5.30;;;;;;;;;;4995673;28;20103;-50
2022/03/25 11:15:30;;;;;;;11.40;5.35;;;;;;;;;;4996410;28;20034;-54
2022/03/25 11:17:57;;;;;;;9.75;5.47;;;;;;;;;;4995956;28;20033;-56
2022/03/25 11:20:25;;;;;;;7.80;4.75;;;;;;;;;;4995851;28;20026;-53
2022/03/25 11:23:10;;;;;;;12.35;6.00;;;;;;;;;;4996089;28;20069;-55
2022/03/25 11:25:46;;;;;;;15.32;5.45;;;;;;;;;;4996148;28;20030;-55
2022/03/25 11:28:19;;;;;;;8.30;5.25;;;;;;;;;;4994942;28;20026;-52
2022/03/25 11:30:46;;;;;;;12.90;5.85;;;;;;;;;;4995669;28;20431;-55
2022/03/25 11:33:12;;;;;;;11.35;6.22;;;;;;;;;;4995885;28;20026;-54
2022/03/25 11:35:40;;;;;;;11.13;6.00;;;;;;;;;;4995308;28;20383;-54
2022/03/25 11:38:12;;;;;;;15.57;7.30;;;;;;;;;;4995473;28;20022;-55
2022/03/25 11:40:40;;;;;;;12.35;7.35;;;;;;;;;;4995460;28;20026;-57
2022/03/25 11:43:32;;;;;;;12.55;7.43;;;;;;;;;;4995363;28;20037;-53
2022/03/25 11:46:01;;;;;;;15.48;7.20;;;;;;;;;;4994344;28;20030;-56
2022/03/25 11:48:27;;;;;;;13.60;7.57;;;;;;;;;;4995351;28;20085;-50
2022/03/25 11:50:55;;;;;;;25.27;14.00;;;;;;;;;;4995558;28;20096;-54
2022/03/25 11:53:22;;;;;;;16.00;8.52;;;;;;;;;;4995423;28;20467;-51
2022/03/25 11:55:55;;;;;;;15.18;6.88;;;;;;;;;;4995170;28;20041;-55
2022/03/25 11:58:22;;;;;;;16.23;6.75;;;;;;;;;;4995449;28;20111;-55
2022/03/25 12:00:49;;;;;;;11.98;6.43;;;;;;;;;;4995897;28;20464;-53
2022/03/25 12:03:15;;;;;;;15.68;8.02;;;;;;;;;;4995052;28;20030;-54
2022/03/25 12:05:58;;;;;;;19.05;8.88;;;;;;;;;;4995030;28;20037;-53
2022/03/25 12:08:25;;;;;;;18.02;8.10;;;;;;;;;;4995240;28;20027;-55
2022/03/25 12:10:52;;;;;;;16.85;7.78;;;;;;;;;;4994466;28;20526;-54
2022/03/25 12:13:19;;;;;;;17.17;8.05;;;;;;;;;;4994724;28;20476;-53
2022/03/25 12:15:46;;;;;;;14.52;7.00;;;;;;;;;;4995370;28;20026;-54
2022/03/25 12:18:31;;;;;;;17.83;9.85;;;;;;;;;;4994546;28;20428;-54
2022/03/25 12:20:57;;;;;;;15.75;7.53;;;;;;;;;;4995628;28;20472;-54
2022/03/25 12:23:23;;;;;;;11.70;7.97;;;;;;;;;;4994754;28;20344;-54
2022/03/25 12:25:49;;;;;;;16.13;8.25;;;;;;;;;;4994999;28;20456;-54
2022/03/25 12:28:23;;;;;;;16.25;8.00;;;;;;;;;;4994935;28;20030;-55
2022/03/25 12:30:50;;;;;;;11.75;7.22;;;;;;;;;;4994941;28;20029;-55
2022/03/25 12:33:19;;;;;;;12.90;7.28;;;;;;;;;;4994506;28;20120;-56
2022/03/25 12:35:45;;;;;;;14.00;7.82;;;;;;;;;;4994708;28;20105;-55
2022/03/25 12:38:19;;;;;;;33.05;8.57;;;;;;;;;;4994265;28;20037;-54
2022/03/25 12:40:46;;;;;;;14.82;6.80;;;;;;;;;;4994704;28;20129;-55
2022/03/25 12:43:12;;;;;;;12.52;7.10;;;;;;;;;;4995031;28;20038;-55
2022/03/25 12:45:44;;;;;;;15.07;7.45;;;;;;;;;;4994236;28;20105;-52
2022/03/25 12:48:23;;;;;;;12.07;7.20;;;;;;;;;;4994337;28;20061;-57
2022/03/25 12:50:50;;;;;;;11.55;7.03;;;;;;;;;;4994540;28;20113;-56
2022/03/25 12:53:17;;;;;;;14.15;8.15;;;;;;;;;;4994443;28;20061;-55
2022/03/25 12:55:44;;;;;;;12.23;7.00;;;;;;;;;;4994551;28;20018;-54
2022/03/25 12:58:11;;;;;;;12.15;7.25;;;;;;;;;;4994529;28;20050;-54
2022/03/25 13:00:40;;;;;;;14.20;7.90;;;;;;;;;;4994497;28;20053;-56
2022/03/25 13:03:07;;;;;;;9.57;7.45;;;;;;;;;;4994455;28;20034;-55
2022/03/25 13:05:34;;;;;;;10.77;7.47;;;;;;;;;;4994093;28;20182;-58
2022/03/25 13:08:00;;;;;;;11.63;7.25;;;;;;;;;;4993855;28;20022;-53
2022/03/25 13:10:30;;;;;;;15.15;8.13;;;;;;;;;;4994540;28;20459;-54
2022/03/25 13:12:58;;;;;;;10.97;7.87;;;;;;;;;;4993297;28;20520;-53
2022/03/25 13:15:26;;;;;;;10.73;7.78;;;;;;;;;;4992610;28;20729;-57
2022/03/25 13:17:53;;;;;;;12.07;9.18;;;;;;;;;;4993889;28;20356;-55
2022/03/25 13:20:19;;;;;;;14.52;9.25;;;;;;;;;;4993902;28;20030;-57
2022/03/25 13:23:06;;;;;;;17.33;7.60;;;;;;;;;;4993917;28;20033;-54
2022/03/25 13:25:46;;;;;;;13.32;7.38;;;;;;;;;;4994462;28;20089;-53
2022/03/25 13:28:16;;;;;;;10.30;7.65;;;;;;;;;;4993618;28;20365;-59
2022/03/25 13:30:44;;;;;;;11.20;7.25;;;;;;;;;;4994149;28;20382;-53
2022/03/25 13:33:14;;;;;;;15.82;8.88;;;;;;;;;;4993715;28;20081;-53
2022/03/25 13:35:42;;;;;;;10.45;6.93;;;;;;;;;;4993810;28;20472;-54
2022/03/25 13:38:27;;;;;;;10.82;7.95;;;;;;;;;;4994058;28;20113;-56
2022/03/25 13:40:57;;;;;;;13.02;7.78;;;;;;;;;;4993986;28;20027;-52
2022/03/25 13:43:33;;;;;;;11.27;7.93;;;;;;;;;;4994338;28;20041;-58
2022/03/25 13:46:06;;;;;;;14.57;7.50;;;;;;;;;;4994382;28;20109;-56
2022/03/25 13:48:38;;;;;;;15.00;8.15;;;;;;;;;;4993608;28;20074;-58
2022/03/25 13:51:05;;;;;;;13.70;8.40;;;;;;;;;;4995395;28;20101;-57
2022/03/25 13:53:31;;;;;;;14.60;8.77;;;;;;;;;;4997754;28;20030;-55
2022/03/25 13:55:57;;;;;;;16.00;7.68;;;;;;;;;;4997415;28;20018;-56
2022/03/25 13:58:23;;;;;;;12.98;7.43;;;;;;;;;;4997238;28;20046;-54
2022/03/25 14:00:53;;;;;;;12.60;7.93;;;;;;;;;;4997561;28;20027;-57
2022/03/25 14:03:29;;;;;;;11.68;7.68;;;;;;;;;;4997392;28;20022;-55
2022/03/25 14:05:55;;;;;;;15.27;7.53;;;;;;;;;;4997606;28;20026;-52
2022/03/25 14:08:34;;;;;;;10.77;6.63;;;;;;;;;;4996873;28;20035;-57
2022/03/25 14:11:00;;;;;;;9.15;6.63;;;;;;;;;;4997748;28;20034;-54
2022/03/25 14:13:27;;;;;;;11.02;6.60;;;;;;;;;;4997304;28;20030;-55
2022/03/25 14:15:53;;;;;;;9.07;6.45;;;;;;;;;;4996939;28;20402;-55
2022/03/25 14:18:20;;;;;;;9.88;7.07;;;;;;;;;;4997466;28;20042;-55
2022/03/25 14:20:46;;;;;;;16.00;7.50;;;;;;;;;;4997232;28;20156;-57
2022/03/25 14:23:16;;;;;;;13.77;8.00;;;;;;;;;;4997007;28;20030;-56
2022/03/25 14:25:43;;;;;;;12.00;7.30;;;;;;;;;;4997116;28;20029;-55
2022/03/25 14:28:15;;;;;;;15.77;8.00;;;;;;;;;;4996987;28;20157;-55
2022/03/25 14:30:41;;;;;;;12.68;6.80;;;;;;;;;;4996394;28;20037;-52